createdAt,value
2022-11-29T00:00:16.282Z,103716.19
2022-11-29T00:05:19.404Z,103720.63
2022-11-29T00:10:25.069Z,103725.03
2022-11-29T00:15:28.193Z,103725.13
2022-11-29T00:20:31.896Z,103721.78
2022-11-29T00:25:35.011Z,103723.69
2022-11-29T00:30:38.158Z,103720.34
2022-11-29T00:35:44.110Z,103721.25
2022-11-29T00:40:52.099Z,103726.47
2022-11-29T00:45:55.217Z,103723.91
2022-11-29T00:50:58.412Z,103726.56
2022-11-29T00:56:03.369Z,103737.91
2022-11-29T01:01:06.551Z,103731.06
2022-11-29T01:06:13.149Z,103739.84
2022-11-29T01:11:22.377Z,103750.22
2022-11-29T01:16:25.950Z,103750.25
2022-11-29T01:21:34.639Z,103766.75
2022-11-29T01:26:37.745Z,103764.16
2022-11-29T01:31:40.839Z,103765.94
2022-11-29T01:36:43.998Z,103763.38
2022-11-29T01:41:47.100Z,103760.78
2022-11-29T01:46:50.218Z,103740.19
2022-11-29T01:52:07.811Z,103752.31
2022-11-29T01:57:13.536Z,103756.69
2022-11-29T02:02:39.779Z,103766.19
2022-11-29T02:07:46.402Z,103755.91
2022-11-29T02:12:55.864Z,103751.56
2022-11-29T02:18:10.808Z,103767.19
2022-11-29T02:23:25.944Z,103765.56
2022-11-29T02:28:48.838Z,103766.34
2022-11-29T02:34:07.795Z,103771.59
2022-11-29T02:39:38.899Z,103769.91
2022-11-29T02:44:53.757Z,103772.56
2022-11-29T02:50:35.747Z,103771.78
2022-11-29T02:55:47.175Z,103771.78
2022-11-29T03:01:16.885Z,103768.31
2022-11-29T03:06:38.334Z,103778.72
2022-11-29T03:12:11.600Z,103778.75
2022-11-29T03:17:32.413Z,103796.16
2022-11-29T03:22:43.379Z,103805.63
2022-11-29T03:27:56.229Z,103796.22
2022-11-29T03:33:35.160Z,103808.34
2022-11-29T03:38:44.994Z,103816.94
2022-11-29T03:43:56.906Z,103817.06
2022-11-29T03:49:31.386Z,103825.72
2022-11-29T03:55:10.244Z,103829.19
2022-11-29T04:00:14.593Z,103829.19
2022-11-29T04:05:20.797Z,103838.75
2022-11-29T04:10:43.920Z,103832.72
2022-11-29T04:16:24.086Z,103840.59
2022-11-29T04:21:42.798Z,103846.59
2022-11-29T04:27:01.218Z,103843.13
2022-11-29T04:32:16.171Z,103852.63
2022-11-29T04:37:49.774Z,103850.91
2022-11-29T04:43:01.742Z,103857.78
2022-11-29T04:48:15.057Z,103865.56
2022-11-29T04:54:03.279Z,103867.25
2022-11-29T04:59:19.752Z,103882.75
2022-11-29T05:04:47.239Z,103890.44
2022-11-29T05:10:01.336Z,103892.97
2022-11-29T05:15:22.943Z,103909.44
2022-11-29T05:21:03.462Z,103910.19
2022-11-29T05:26:09.949Z,103917.88
2022-11-29T05:31:25.733Z,103922.94
2022-11-29T05:36:59.479Z,103909.06
2022-11-29T05:42:05.824Z,103909.84
2022-11-29T05:47:16.397Z,103917.50
2022-11-29T05:52:44.655Z,103920.81
2022-11-29T05:57:57.871Z,103919.91
2022-11-29T06:03:27.889Z,103930.19
2022-11-29T06:08:55.194Z,103928.31
2022-11-29T06:14:17.613Z,103928.25
2022-11-29T06:19:32.787Z,103922.94
2022-11-29T06:24:48.102Z,103928.84
2022-11-29T06:30:13.868Z,103934.78
2022-11-29T06:35:46.089Z,103926.91
2022-11-29T06:40:50.876Z,103939.75
2022-11-29T06:46:24.271Z,103943.09
2022-11-29T06:52:17.967Z,103938.41
2022-11-29T06:57:26.948Z,103966.38
2022-11-29T07:02:56.464Z,103955.16
2022-11-29T07:08:26.568Z,103953.41
2022-11-29T07:13:29.965Z,103928.19
2022-11-29T07:18:33.094Z,103943.31
2022-11-29T07:23:39.600Z,103943.53
2022-11-29T07:29:02.421Z,103948.00
2022-11-29T07:34:46.508Z,103952.94
2022-11-29T07:40:02.077Z,103955.34
2022-11-29T07:45:28.957Z,103946.44
2022-11-29T07:50:32.506Z,103947.91
2022-11-29T07:55:37.280Z,103937.25
2022-11-29T08:00:43.206Z,103937.34
2022-11-29T08:05:48.096Z,103938.81
2022-11-29T08:10:51.287Z,103944.09
2022-11-29T08:15:54.397Z,103932.66
2022-11-29T08:20:57.590Z,103929.25
2022-11-29T08:26:02.787Z,103935.28
2022-11-29T08:31:10.046Z,103930.09
2022-11-29T08:41:52.961Z,103940.47
2022-11-29T08:47:14.622Z,103928.03
2022-11-29T08:52:36.005Z,103929.22
2022-11-29T08:57:40.855Z,103931.09
2022-11-29T09:02:45.232Z,103936.59
2022-11-29T09:07:48.913Z,103937.53
2022-11-29T09:12:55.535Z,103917.72
2022-11-29T09:17:58.734Z,103930.19
2022-11-29T09:23:02.446Z,103937.47
2022-11-29T09:28:06.076Z,103931.78
2022-11-29T09:33:09.282Z,103924.34
2022-11-29T09:38:15.510Z,103922.47
2022-11-29T09:43:30.096Z,103919.16
2022-11-29T09:49:10.805Z,103911.38
2022-11-29T09:54:23.421Z,103910.78
2022-11-29T09:59:41.355Z,103902.34
2022-11-29T10:04:54.026Z,103908.47
2022-11-29T10:10:03.792Z,103903.94
2022-11-29T10:15:20.195Z,103902.03
2022-11-29T10:20:26.835Z,103897.69
2022-11-29T10:25:42.726Z,103887.13
2022-11-29T10:30:47.488Z,103894.19
2022-11-29T10:35:55.989Z,103893.78
2022-11-29T10:41:12.587Z,103897.38
2022-11-29T10:46:32.912Z,103898.41
2022-11-29T10:51:57.481Z,103897.44
2022-11-29T10:57:02.247Z,103896.44
2022-11-29T11:02:19.893Z,103892.31
2022-11-29T11:07:31.946Z,103895.59
2022-11-29T11:12:38.835Z,103892.94
2022-11-29T11:18:00.829Z,103903.53
2022-11-29T11:23:08.662Z,103910.69
2022-11-29T11:28:24.841Z,103911.00
2022-11-29T11:33:49.603Z,103909.19
2022-11-29T11:38:59.764Z,103903.25
2022-11-29T11:44:26.306Z,103907.53
2022-11-29T11:50:09.946Z,103915.09
2022-11-29T11:55:22.513Z,103922.16
2022-11-29T12:01:03.433Z,103920.31
2022-11-29T12:06:28.113Z,103930.59
2022-11-29T12:11:42.518Z,103931.63
2022-11-29T12:16:50.698Z,103938.88
2022-11-29T12:22:03.062Z,103941.47
2022-11-29T12:27:27.654Z,103944.31
2022-11-29T12:32:33.619Z,103942.94
2022-11-29T12:37:43.298Z,103946.69
2022-11-29T12:43:05.149Z,103944.41
2022-11-29T12:48:28.802Z,103937.47
2022-11-29T12:54:04.490Z,103927.28
2022-11-29T12:59:35.430Z,103940.84
2022-11-29T13:04:59.927Z,103944.66
2022-11-29T13:10:46.152Z,103947.72
2022-11-29T13:16:02.081Z,103953.28
2022-11-29T13:21:11.908Z,103952.72
2022-11-29T13:26:17.363Z,103971.06
2022-11-29T13:31:23.793Z,103958.66
2022-11-29T13:36:58.221Z,103971.84
2022-11-29T13:42:16.772Z,103968.72
2022-11-29T13:47:21.546Z,103969.09
2022-11-29T13:52:43.422Z,103972.72
2022-11-29T14:03:24.360Z,103964.53
2022-11-29T14:14:16.952Z,103963.19
2022-11-29T14:19:26.738Z,103978.38
2022-11-29T14:24:36.140Z,103981.94
2022-11-29T14:29:51.081Z,103983.00
2022-11-29T14:35:10.268Z,103983.16
2022-11-29T14:40:20.590Z,103994.06
2022-11-29T14:45:30.911Z,104002.91
2022-11-29T14:50:40.275Z,104011.78
2022-11-29T14:56:30.622Z,104005.19
2022-11-29T15:01:10.735Z,104018.31
2022-11-29T15:06:24.381Z,104028.00
2022-11-29T15:11:53.079Z,104017.63
2022-11-29T15:17:03.904Z,104030.97
2022-11-29T15:22:18.624Z,104032.09
2022-11-29T15:27:23.171Z,104039.13
2022-11-29T15:32:32.844Z,104036.50
2022-11-29T15:37:36.792Z,104040.09
2022-11-29T15:42:50.238Z,104048.78
2022-11-29T15:47:54.486Z,104060.16
2022-11-29T15:53:04.216Z,104057.69
2022-11-29T15:58:12.020Z,104056.00
2022-11-29T16:03:43.940Z,104068.38
2022-11-29T16:08:48.709Z,104076.22
2022-11-29T16:14:13.593Z,104066.00
2022-11-29T16:19:29.168Z,104075.69
2022-11-29T16:24:36.223Z,104087.19
2022-11-29T16:29:45.376Z,104095.03
2022-11-29T16:34:48.834Z,104094.28
2022-11-29T16:39:57.079Z,104093.56
2022-11-29T16:45:36.954Z,104096.34
2022-11-29T16:50:40.294Z,104098.16
2022-11-29T16:55:43.485Z,104100.91
2022-11-29T17:00:46.774Z,104097.44
2022-11-29T17:05:50.448Z,104085.44
2022-11-29T17:10:53.645Z,104093.13
2022-11-29T17:15:56.951Z,104092.31
2022-11-29T17:21:00.733Z,104101.06
2022-11-29T17:26:04.038Z,104109.72
2022-11-29T17:31:11.223Z,104106.31
2022-11-29T17:36:18.029Z,104105.44
2022-11-29T17:41:23.655Z,104113.38
2022-11-29T17:46:29.491Z,104119.53
2022-11-29T17:56:56.420Z,104123.06
2022-11-29T18:01:59.642Z,104131.84
2022-11-29T18:07:03.035Z,104122.44
2022-11-29T18:12:06.359Z,104119.94
2022-11-29T18:17:13.135Z,104120.91
2022-11-29T18:22:16.372Z,104122.78
2022-11-29T18:27:19.644Z,104134.09
2022-11-29T18:32:22.807Z,104140.16
2022-11-29T18:37:54.498Z,104140.97
2022-11-29T18:42:51.303Z,104134.09
2022-11-29T18:47:54.674Z,104142.00
2022-11-29T18:52:59.107Z,104142.03
2022-11-29T18:58:02.345Z,104133.44
2022-11-29T19:03:05.442Z,104143.00
2022-11-29T19:08:08.526Z,104137.91
2022-11-29T19:13:11.688Z,104131.88
2022-11-29T19:18:14.901Z,104125.84
2022-11-29T19:23:21.645Z,104138.13
2022-11-29T19:28:24.839Z,104133.84
2022-11-29T19:33:31.068Z,104138.22
2022-11-29T19:38:38.132Z,104123.63
2022-11-29T19:43:41.269Z,104140.03
2022-11-29T19:48:44.994Z,104143.56
2022-11-29T19:53:48.675Z,104132.50
2022-11-29T19:58:52.801Z,104143.69
2022-11-29T20:03:59.587Z,104146.34
2022-11-29T20:09:02.789Z,104148.25
2022-11-29T20:14:08.164Z,104149.97
2022-11-29T20:19:13.833Z,104146.56
2022-11-29T20:24:17.657Z,104146.63
2022-11-29T20:29:22.112Z,104159.66
2022-11-29T20:34:25.565Z,104158.78
2022-11-29T20:39:35.192Z,104149.22
2022-11-29T20:44:54.154Z,104149.22
2022-11-29T20:49:57.953Z,104162.28
2022-11-29T20:55:01.151Z,104166.63
2022-11-29T21:00:11.489Z,104168.44
2022-11-29T21:05:16.531Z,104164.16
2022-11-29T21:17:33.364Z,104153.94
2022-11-29T21:23:24.138Z,104165.19
2022-11-29T21:29:06.030Z,104167.75
2022-11-29T21:34:09.240Z,104179.03
2022-11-29T21:39:15.756Z,104184.25
2022-11-29T21:44:18.841Z,104172.16
2022-11-29T21:49:21.956Z,104180.00
2022-11-29T21:54:25.053Z,104185.22
2022-11-29T21:59:28.384Z,104172.28
2022-11-29T22:04:31.496Z,104169.75
2022-11-29T22:09:34.645Z,104168.91
2022-11-29T22:14:37.762Z,104169.88
2022-11-29T22:19:41.175Z,104175.06
2022-11-29T22:24:44.430Z,104168.19
2022-11-29T22:29:49.137Z,104151.81
2022-11-29T22:34:55.047Z,104157.00
2022-11-29T22:39:58.118Z,104151.03
2022-11-29T22:45:02.445Z,104157.09
2022-11-29T22:50:11.308Z,104158.03
2022-11-29T22:55:14.434Z,104166.59
2022-11-29T23:00:17.679Z,104171.00
2022-11-29T23:05:20.840Z,104164.97
2022-11-29T23:10:24.831Z,104168.41
2022-11-29T23:15:27.934Z,104172.72
2022-11-29T23:20:31.082Z,104170.19
2022-11-29T23:25:34.173Z,104172.78
2022-11-29T23:30:37.208Z,104171.94
2022-11-29T23:35:40.345Z,104165.88
2022-11-29T23:40:46.974Z,104161.56
2022-11-29T23:45:50.407Z,104162.41
2022-11-29T23:50:53.551Z,104165.91
2022-11-29T23:56:01.614Z,104163.34
